Time;durP1;ratioP1;P1;durP2;ratioP2;P2;SDS_P1;SDS_P2;PMS_P1;PMS_P2;Temp;Humidity;BMP_temperature;BMP_pressure;BME280_temperature;BME280_humidity;BME280_pressure;Samples;Min_cycle;Max_cycle;Signal;HPM_P1;HPM_P2
2024/01/02 00:01:22;;;;;;;;;;;;;;;12.51;99.81;99704.88;5049629;28;19921;-59
2024/01/02 00:03:49;;;;;;;;;;;;;;;12.40;99.92;99712.84;5050949;28;19927;-57
2024/01/02 00:06:16;;;;;;;;;;;;;;;12.44;100.00;99699.16;5050672;28;19932;-56
2024/01/02 00:08:43;;;;;;;;;;;;;;;12.38;100.00;99698.59;5049660;28;19924;-57
2024/01/02 00:11:11;;;;;;;;;;;;;;;12.48;100.00;99714.66;5057985;28;19921;-56
2024/01/02 00:13:38;;;;;;;;;;;;;;;12.33;100.00;99706.31;5043346;28;19920;-55
2024/01/02 00:16:05;;;;;;;;;;;;;;;12.36;100.00;99711.94;5074074;28;19920;-59
2024/01/02 00:18:33;;;;;;;;;;;;;;;12.37;100.00;99702.53;5034156;28;20404;-59
2024/01/02 00:21:00;;;;;;;;;;;;;;;12.46;100.00;99694.88;5048911;28;19940;-57
2024/01/02 00:23:27;;;;;;;;;;;;;;;12.53;100.00;99691.53;5050781;28;19921;-55
2024/01/02 00:25:54;;;;;;;;;;;;;;;12.70;100.00;99685.69;5034317;28;19924;-56
2024/01/02 00:28:21;;;;;;;;;;;;;;;12.54;100.00;99673.78;5048713;28;20034;-59
2024/01/02 00:30:48;;;;;;;;;;;;;;;12.46;100.00;99670.00;5041335;28;19928;-58
2024/01/02 00:33:16;;;;;;;;;;;;;;;12.43;100.00;99678.19;5048870;28;19928;-57
2024/01/02 00:35:43;;;;;;;;;;;;;;;12.30;100.00;99668.38;5050186;28;19953;-56
2024/01/02 00:38:10;;;;;;;;;;;;;;;12.38;100.00;99640.59;5049668;28;19927;-58
2024/01/02 00:40:37;;;;;;;;;;;;;;;12.45;100.00;99620.66;5050179;28;19927;-57
2024/01/02 00:43:04;;;;;;;;;;;;;;;12.26;100.00;99624.09;5048847;28;19920;-57
2024/01/02 00:45:32;;;;;;;;;;;;;;;12.34;100.00;99623.13;5051657;28;19928;-58
2024/01/02 00:47:59;;;;;;;;;;;;;;;12.38;100.00;99607.47;5065220;28;19921;-59
2024/01/02 00:50:26;;;;;;;;;;;;;;;12.32;100.00;99594.25;5067501;28;19928;-58
2024/01/02 00:52:53;;;;;;;;;;;;;;;12.04;100.00;99604.50;5050371;28;19925;-57
2024/01/02 00:55:20;;;;;;;;;;;;;;;12.19;100.00;99599.03;5050914;28;20541;-60
2024/01/02 00:57:48;;;;;;;;;;;;;;;12.23;100.00;99605.47;5047871;28;20007;-59
2024/01/02 01:00:15;;;;;;;;;;;;;;;12.36;100.00;99607.00;5046935;28;19932;-59
2024/01/02 01:02:42;;;;;;;;;;;;;;;12.76;100.00;99595.84;5046788;28;19921;-57
2024/01/02 01:05:09;;;;;;;;;;;;;;;12.88;100.00;99601.31;5031419;28;19928;-60
2024/01/02 01:07:36;;;;;;;;;;;;;;;12.65;100.00;99593.97;5023513;28;19928;-57
2024/01/02 01:10:03;;;;;;;;;;;;;;;12.56;100.00;99583.09;5049454;28;19921;-57
2024/01/02 01:12:30;;;;;;;;;;;;;;;12.80;100.00;99582.13;5029900;28;19925;-57
2024/01/02 01:14:58;;;;;;;;;;;;;;;12.71;100.00;99556.66;5034742;28;19928;-57
2024/01/02 01:17:25;;;;;;;;;;;;;;;12.58;100.00;99564.22;5050317;28;20307;-56
2024/01/02 01:19:52;;;;;;;;;;;;;;;12.65;100.00;99558.88;5050535;28;19927;-58
2024/01/02 01:22:28;;;;;;;;;;;;;;;12.52;100.00;99564.84;5041281;28;20312;-61
2024/01/02 01:25:34;;;;;;;;;;;;;;;12.80;100.00;99547.00;5039678;28;19931;-59
2024/01/02 01:28:03;;;;;;;;;;;;;;;12.67;100.00;99562.09;5055191;28;19920;-56
2024/01/02 01:30:30;;;;;;;;;;;;;;;12.57;100.00;99557.06;5053778;28;19936;-59
2024/01/02 01:32:57;;;;;;;;;;;;;;;12.49;100.00;99555.28;5053570;28;19943;-57
2024/01/02 01:35:24;;;;;;;;;;;;;;;12.66;100.00;99543.09;5054243;28;19925;-57
2024/01/02 01:37:52;;;;;;;;;;;;;;;12.59;100.00;99543.69;5055357;28;19927;-60
2024/01/02 01:40:19;;;;;;;;;;;;;;;12.55;100.00;99533.72;5048723;28;19921;-58
2024/01/02 01:42:46;;;;;;;;;;;;;;;12.68;100.00;99543.53;5043570;28;19924;-59
2024/01/02 01:45:13;;;;;;;;;;;;;;;12.64;100.00;99546.19;5068562;28;19931;-57
2024/01/02 01:47:40;;;;;;;;;;;;;;;12.70;100.00;99558.59;5054318;28;19920;-57
2024/01/02 01:50:08;;;;;;;;;;;;;;;12.76;100.00;99537.81;5072906;28;20323;-57
2024/01/02 01:52:36;;;;;;;;;;;;;;;12.72;100.00;99536.94;5055068;28;19921;-59
2024/01/02 01:55:03;;;;;;;;;;;;;;;12.81;100.00;99528.47;5044940;28;19920;-58
2024/01/02 01:57:31;;;;;;;;;;;;;;;12.63;100.00;99541.03;5059645;28;19924;-56
2024/01/02 01:59:58;;;;;;;;;;;;;;;12.72;100.00;99531.44;5053507;28;19947;-58
2024/01/02 02:02:25;;;;;;;;;;;;;;;12.70;100.00;99541.22;5052764;28;19931;-58
2024/01/02 02:04:52;;;;;;;;;;;;;;;12.30;100.00;99533.88;5053128;28;19928;-62
2024/01/02 02:07:19;;;;;;;;;;;;;;;12.42;100.00;99535.75;5043865;28;20005;-57
2024/01/02 02:09:50;;;;;;;;;;;;;;;12.28;100.00;99544.47;5031889;28;19921;-58
2024/01/02 02:12:16;;;;;;;;;;;;;;;12.40;100.00;99533.34;5033069;28;19920;-56
2024/01/02 02:14:44;;;;;;;;;;;;;;;12.57;100.00;99532.19;5050309;28;19931;-56
2024/01/02 02:17:22;;;;;;;;;;;;;;;12.59;100.00;99549.22;5017058;28;20324;-56
2024/01/02 02:19:49;;;;;;;;;;;;;;;12.49;100.00;99535.94;5051438;28;19921;-56
2024/01/02 02:22:17;;;;;;;;;;;;;;;12.65;100.00;99517.44;5069034;28;20368;-57
2024/01/02 02:24:44;;;;;;;;;;;;;;;12.69;100.00;99517.53;5051492;28;19924;-57
2024/01/02 02:27:11;;;;;;;;;;;;;;;12.67;100.00;99517.88;5051646;28;20342;-57
2024/01/02 02:29:47;;;;;;;;;;;;;;;12.67;100.00;99526.16;5070637;28;20593;-57
2024/01/02 02:32:14;;;;;;;;;;;;;;;12.63;100.00;99541.03;5042003;28;19925;-54
2024/01/02 02:34:41;;;;;;;;;;;;;;;12.42;100.00;99544.03;5052965;28;19921;-57
2024/01/02 02:37:08;;;;;;;;;;;;;;;12.43;100.00;99524.34;5039220;28;19951;-57
2024/01/02 02:39:35;;;;;;;;;;;;;;;12.67;100.00;99526.16;5062977;28;19925;-62
2024/01/02 02:42:03;;;;;;;;;;;;;;;12.77;100.00;99509.06;5047331;28;19928;-58
2024/01/02 02:44:31;;;;;;;;;;;;;;;12.78;100.00;99516.16;5038457;28;20047;-58
2024/01/02 02:46:58;;;;;;;;;;;;;;;12.73;100.00;99499.06;5042618;28;19920;-58
2024/01/02 02:49:25;;;;;;;;;;;;;;;12.58;100.00;99505.38;5067544;28;19925;-58
2024/01/02 02:51:52;;;;;;;;;;;;;;;12.57;100.00;99504.56;5042937;28;20299;-58
2024/01/02 02:54:19;;;;;;;;;;;;;;;12.51;100.00;99524.53;5052126;28;19927;-59
2024/01/02 02:56:46;;;;;;;;;;;;;;;12.58;100.00;99531.06;5050471;28;19928;-59
2024/01/02 02:59:14;;;;;;;;;;;;;;;12.68;100.00;99516.72;5031938;28;20391;-55
2024/01/02 03:01:41;;;;;;;;;;;;;;;12.52;100.00;99515.91;5035281;28;19931;-57
2024/01/02 03:04:08;;;;;;;;;;;;;;;12.56;100.00;99502.19;5053162;28;19921;-58
2024/01/02 03:06:35;;;;;;;;;;;;;;;12.62;100.00;99495.25;5051015;28;19920;-57
2024/01/02 03:09:03;;;;;;;;;;;;;;;12.64;100.00;99507.53;5052469;28;19943;-57
2024/01/02 03:11:30;;;;;;;;;;;;;;;12.65;100.00;99502.81;5053567;28;20392;-59
2024/01/02 03:13:57;;;;;;;;;;;;;;;12.75;100.00;99500.31;5050260;28;19947;-57
2024/01/02 03:16:24;;;;;;;;;;;;;;;12.80;100.00;99497.28;5052648;28;19920;-58
2024/01/02 03:18:51;;;;;;;;;;;;;;;12.88;100.00;99501.03;5052659;28;19948;-54
2024/01/02 03:21:20;;;;;;;;;;;;;;;13.02;100.00;99488.34;5053494;28;19925;-55
2024/01/02 03:23:47;;;;;;;;;;;;;;;12.98;100.00;99501.28;5052984;28;19937;-57
2024/01/02 03:26:14;;;;;;;;;;;;;;;12.89;100.00;99477.75;5048786;28;19924;-56
2024/01/02 03:28:43;;;;;;;;;;;;;;;12.79;100.00;99492.13;5051646;28;19928;-56
2024/01/02 03:31:10;;;;;;;;;;;;;;;12.68;100.00;99491.03;5052558;28;19921;-57
2024/01/02 03:33:38;;;;;;;;;;;;;;;12.78;100.00;99482.22;5053137;28;19925;-57
2024/01/02 03:36:18;;;;;;;;;;;;;;;12.81;100.00;99462.97;5052437;28;20249;-56
2024/01/02 03:38:45;;;;;;;;;;;;;;;12.54;100.00;99465.81;5051192;28;19928;-57
2024/01/02 03:41:12;;;;;;;;;;;;;;;12.73;100.00;99465.91;5052357;28;20015;-57
2024/01/02 03:43:40;;;;;;;;;;;;;;;12.66;100.00;99460.22;5044823;28;19925;-57
2024/01/02 03:46:07;;;;;;;;;;;;;;;12.64;100.00;99432.94;5056004;28;20660;-57
2024/01/02 03:48:34;;;;;;;;;;;;;;;12.68;100.00;99447.66;5057831;28;20293;-59
2024/01/02 03:51:01;;;;;;;;;;;;;;;12.68;100.00;99463.41;5057447;28;20315;-55
2024/01/02 03:53:28;;;;;;;;;;;;;;;12.69;100.00;99445.69;5046265;28;19928;-58
2024/01/02 03:55:56;;;;;;;;;;;;;;;12.68;100.00;99442.13;5051269;28;19924;-55
2024/01/02 03:58:23;;;;;;;;;;;;;;;12.45;100.00;99447.47;5052139;28;19927;-55
2024/01/02 04:00:50;;;;;;;;;;;;;;;12.43;100.00;99452.56;5034385;28;20507;-57
2024/01/02 04:03:18;;;;;;;;;;;;;;;12.55;100.00;99464.69;5030917;28;20327;-59
2024/01/02 04:05:45;;;;;;;;;;;;;;;12.68;100.00;99453.16;5053298;28;19924;-55
2024/01/02 04:08:12;;;;;;;;;;;;;;;12.54;100.00;99471.34;5072739;28;19943;-59
2024/01/02 04:10:39;;;;;;;;;;;;;;;12.71;100.00;99474.53;5037286;28;19944;-59
2024/01/02 04:13:06;;;;;;;;;;;;;;;12.72;100.00;99483.66;5050563;28;19921;-62
2024/01/02 04:15:33;;;;;;;;;;;;;;;12.88;100.00;99485.25;5049887;28;19928;-62
2024/01/02 04:18:01;;;;;;;;;;;;;;;12.92;100.00;99480.59;5052320;28;19928;-61
2024/01/02 04:20:28;;;;;;;;;;;;;;;12.92;100.00;99480.59;5052290;28;19921;-61
2024/01/02 04:22:56;;;;;;;;;;;;;;;12.85;100.00;99477.66;5051473;28;19932;-62
2024/01/02 04:25:23;;;;;;;;;;;;;;;12.68;100.00;99486.31;5051914;28;20273;-62
2024/01/02 04:27:51;;;;;;;;;;;;;;;12.71;100.00;99482.84;5050607;28;19921;-61
2024/01/02 04:30:18;;;;;;;;;;;;;;;12.57;100.00;99478.94;5060196;28;20307;-61
2024/01/02 04:32:45;;;;;;;;;;;;;;;12.70;100.00;99484.00;5043696;28;20430;-62
2024/01/02 04:35:13;;;;;;;;;;;;;;;12.87;100.00;99467.06;5051850;28;19920;-61
2024/01/02 04:37:40;;;;;;;;;;;;;;;12.91;100.00;99478.19;5050704;28;19925;-62
2024/01/02 04:40:10;;;;;;;;;;;;;;;12.86;100.00;99476.50;5051797;28;19921;-63
2024/01/02 04:42:40;;;;;;;;;;;;;;;13.02;100.00;99471.00;5050746;28;19921;-62
2024/01/02 04:45:07;;;;;;;;;;;;;;;12.93;100.00;99465.63;5052547;28;19921;-62
2024/01/02 04:47:34;;;;;;;;;;;;;;;12.74;100.00;99470.28;5061068;28;19928;-61
2024/01/02 04:50:01;;;;;;;;;;;;;;;12.61;100.00;99469.56;5071276;28;19924;-63
2024/01/02 04:52:29;;;;;;;;;;;;;;;12.62;100.00;99470.38;5052736;28;20265;-62
2024/01/02 04:54:58;;;;;;;;;;;;;;;12.77;100.00;99464.03;5048193;28;19925;-62
2024/01/02 04:57:25;;;;;;;;;;;;;;;12.52;100.00;99465.41;5051992;28;19921;-62
2024/01/02 04:59:52;;;;;;;;;;;;;;;12.66;100.00;99463.78;5055515;28;19928;-61
2024/01/02 05:02:22;;;;;;;;;;;;;;;12.55;100.00;99475.72;5054427;28;19921;-62
2024/01/02 05:04:50;;;;;;;;;;;;;;;12.80;100.00;99463.31;5070753;28;19921;-63
2024/01/02 05:07:17;;;;;;;;;;;;;;;12.88;100.00;99465.09;5045149;28;19925;-61
2024/01/02 05:09:44;;;;;;;;;;;;;;;12.77;100.00;99467.59;5055504;28;20327;-62
2024/01/02 05:12:13;;;;;;;;;;;;;;;12.61;100.00;99463.22;5054520;28;19921;-61
2024/01/02 05:14:40;;;;;;;;;;;;;;;12.36;100.00;99462.63;5071952;28;19932;-63
2024/01/02 05:17:10;;;;;;;;;;;;;;;12.48;100.00;99459.78;5052382;28;20462;-62
2024/01/02 05:19:37;;;;;;;;;;;;;;;12.43;100.00;99455.31;5054195;28;19963;-62
2024/01/02 05:22:04;;;;;;;;;;;;;;;12.65;100.00;99466.91;5054428;28;19921;-63
2024/01/02 05:24:31;;;;;;;;;;;;;;;12.52;100.00;99451.59;5054194;28;19932;-62
2024/01/02 05:26:58;;;;;;;;;;;;;;;12.30;100.00;99459.34;5037583;28;20500;-63
2024/01/02 05:29:25;;;;;;;;;;;;;;;12.39;100.00;99448.91;5053882;28;19925;-64
2024/01/02 05:31:53;;;;;;;;;;;;;;;12.34;100.00;99451.91;5053123;28;19927;-62
2024/01/02 05:34:20;;;;;;;;;;;;;;;12.33;100.00;99450.31;5037499;28;19920;-62
2024/01/02 05:36:47;;;;;;;;;;;;;;;12.17;100.00;99437.66;5052565;28;20051;-62
2024/01/02 05:39:14;;;;;;;;;;;;;;;12.27;100.00;99448.19;5053586;28;19924;-62
2024/01/02 05:41:42;;;;;;;;;;;;;;;12.39;100.00;99437.88;5053487;28;19924;-62
2024/01/02 05:44:11;;;;;;;;;;;;;;;12.22;100.00;99437.41;5044917;28;19921;-62
2024/01/02 05:46:38;;;;;;;;;;;;;;;12.10;100.00;99437.50;5041407;28;19932;-62
2024/01/02 05:49:05;;;;;;;;;;;;;;;12.27;100.00;99437.16;5074743;28;19927;-62
2024/01/02 05:51:32;;;;;;;;;;;;;;;12.35;100.00;99436.97;5059183;28;19927;-62
2024/01/02 05:53:59;;;;;;;;;;;;;;;12.38;100.00;99446.47;5055290;28;19927;-62
2024/01/02 05:56:26;;;;;;;;;;;;;;;12.09;100.00;99441.41;5054411;28;19925;-62
2024/01/02 05:58:53;;;;;;;;;;;;;;;12.24;100.00;99437.84;5052855;28;19920;-63
2024/01/02 06:01:20;;;;;;;;;;;;;;;12.37;100.00;99448.47;5048663;28;19920;-61
2024/01/02 06:03:48;;;;;;;;;;;;;;;12.21;100.00;99441.31;5050166;28;19921;-61
2024/01/02 06:06:15;;;;;;;;;;;;;;;12.45;100.00;99433.66;5049877;28;19928;-62
2024/01/02 06:08:42;;;;;;;;;;;;;;;12.54;100.00;99421.63;5034890;28;19928;-62
2024/01/02 06:11:10;;;;;;;;;;;;;;;12.43;100.00;99432.41;5033673;28;19921;-61
2024/01/02 06:13:37;;;;;;;;;;;;;;;12.42;100.00;99439.91;5058796;28;20269;-62
2024/01/02 06:16:04;;;;;;;;;;;;;;;12.28;100.00;99424.94;5061339;28;19932;-63
2024/01/02 06:18:31;;;;;;;;;;;;;;;12.16;100.00;99423.06;5054806;28;20433;-63
2024/01/02 06:21:02;;;;;;;;;;;;;;;12.24;100.00;99415.75;5054287;28;19925;-63
2024/01/02 06:23:29;;;;;;;;;;;;;;;12.16;100.00;99413.97;5053320;28;19955;-62
2024/01/02 06:26:03;;;;;;;;;;;;;;;12.05;100.00;99415.66;5052062;28;19924;-63
2024/01/02 06:28:30;;;;;;;;;;;;;;;12.33;100.00;99427.44;5054332;28;20030;-62
2024/01/02 06:30:57;;;;;;;;;;;;;;;12.41;100.00;99424.47;5054501;28;19925;-63
2024/01/02 06:33:25;;;;;;;;;;;;;;;12.53;100.00;99420.84;5054324;28;19920;-62
2024/01/02 06:35:52;;;;;;;;;;;;;;;12.33;100.00;99410.84;5057968;28;19924;-62
2024/01/02 06:38:19;;;;;;;;;;;;;;;12.37;100.00;99417.28;5066144;28;20075;-61
2024/01/02 06:40:48;;;;;;;;;;;;;;;12.28;100.00;99409.19;5044535;28;19921;-61
2024/01/02 06:43:16;;;;;;;;;;;;;;;12.52;100.00;99405.41;5051839;28;19925;-62
2024/01/02 06:45:43;;;;;;;;;;;;;;;12.21;100.00;99399.91;5051574;28;19920;-63
2024/01/02 06:48:10;;;;;;;;;;;;;;;12.29;100.00;99393.44;5052719;28;19928;-62
2024/01/02 06:50:38;;;;;;;;;;;;;;;12.26;100.00;99392.16;5051220;28;19925;-61
2024/01/02 06:53:05;;;;;;;;;;;;;;;12.21;100.00;99389.69;5040404;28;19952;-61
2024/01/02 06:55:32;;;;;;;;;;;;;;;12.21;100.00;99400.72;5053187;28;19939;-63
2024/01/02 06:58:00;;;;;;;;;;;;;;;12.12;100.00;99385.47;5052489;28;19932;-62
2024/01/02 07:00:28;;;;;;;;;;;;;;;12.19;100.00;99396.69;5048513;28;19924;-61
2024/01/02 07:02:56;;;;;;;;;;;;;;;12.13;100.00;99395.38;5050188;28;19925;-62
2024/01/02 07:05:23;;;;;;;;;;;;;;;12.25;100.00;99385.06;5052298;28;19921;-63
2024/01/02 07:07:50;;;;;;;;;;;;;;;12.23;100.00;99390.13;5054664;28;19921;-63
2024/01/02 07:10:18;;;;;;;;;;;;;;;12.21;100.00;99381.41;5051082;28;19977;-63
2024/01/02 07:12:45;;;;;;;;;;;;;;;12.37;100.00;99370.34;5036329;28;19939;-63
2024/01/02 07:15:12;;;;;;;;;;;;;;;12.41;100.00;99387.81;5049786;28;20382;-63
2024/01/02 07:17:40;;;;;;;;;;;;;;;12.19;100.00;99382.91;5032999;28;19931;-62
2024/01/02 07:20:07;;;;;;;;;;;;;;;12.30;100.00;99382.03;5052078;28;19921;-62
2024/01/02 07:22:34;;;;;;;;;;;;;;;12.32;100.00;99382.47;5046449;28;19947;-63
2024/01/02 07:25:01;;;;;;;;;;;;;;;12.15;100.00;99379.25;5050855;28;20285;-61
2024/01/02 07:27:28;;;;;;;;;;;;;;;12.22;100.00;99377.47;5043479;28;19921;-61
2024/01/02 07:29:55;;;;;;;;;;;;;;;12.62;100.00;99371.75;5050878;28;19920;-62
2024/01/02 07:32:22;;;;;;;;;;;;;;;12.36;100.00;99366.00;5050506;28;19928;-61
2024/01/02 07:34:50;;;;;;;;;;;;;;;12.41;100.00;99365.72;5052679;28;20012;-61
2024/01/02 07:37:17;;;;;;;;;;;;;;;12.34;100.00;99373.81;5046616;28;19925;-63
2024/01/02 07:39:44;;;;;;;;;;;;;;;12.39;100.00;99368.03;5051643;28;19921;-63
2024/01/02 07:42:12;;;;;;;;;;;;;;;12.20;100.00;99357.69;5052444;28;19932;-63
2024/01/02 07:44:39;;;;;;;;;;;;;;;12.16;100.00;99359.59;5050884;28;19930;-63
2024/01/02 07:47:07;;;;;;;;;;;;;;;12.26;100.00;99375.59;5058251;28;19931;-62
2024/01/02 07:49:38;;;;;;;;;;;;;;;12.32;100.00;99365.09;5073022;28;19920;-62
2024/01/02 07:52:20;;;;;;;;;;;;;;;12.29;100.00;99363.84;5049508;28;19921;-63
2024/01/02 07:54:47;;;;;;;;;;;;;;;12.16;100.00;99365.09;5030817;28;19932;-63
2024/01/02 07:57:32;;;;;;;;;;;;;;;11.90;100.00;99364.81;5041376;28;19940;-64
2024/01/02 07:59:59;;;;;;;;;;;;;;;12.21;100.00;99367.59;5052081;28;19921;-61
2024/01/02 08:02:26;;;;;;;;;;;;;;;12.53;100.00;99360.09;5052494;28;19920;-62
2024/01/02 08:05:23;;;;;;;;;;;;;;;12.39;100.00;99374.38;5047797;28;19920;-62
2024/01/02 08:08:02;;;;;;;;;;;;;;;12.31;100.00;99350.47;5048406;28;19920;-63
2024/01/02 08:11:47;;;;;;;;;;;;;;;12.14;100.00;99339.00;5048591;28;20348;-66
2024/01/02 08:14:17;;;;;;;;;;;;;;;12.64;100.00;99341.78;5049724;28;19925;-63
2024/01/02 08:16:44;;;;;;;;;;;;;;;13.86;96.83;99333.63;5047576;28;20386;-64
2024/01/02 08:19:11;;;;;;;;;;;;;;;14.01;93.03;99330.75;5049563;28;19921;-64
2024/01/02 08:21:38;;;;;;;;;;;;;;;13.20;95.40;99331.97;5048827;28;19936;-63
2024/01/02 08:24:05;;;;;;;;;;;;;;;13.21;95.50;99330.03;5047754;28;19929;-64
2024/01/02 08:26:33;;;;;;;;;;;;;;;12.89;97.21;99347.84;5059077;28;19921;-62
2024/01/02 08:29:00;;;;;;;;;;;;;;;12.62;99.17;99330.31;5049070;28;19929;-64
2024/01/02 08:31:27;;;;;;;;;;;;;;;12.78;99.69;99341.31;5044175;28;19925;-64
2024/01/02 08:33:54;;;;;;;;;;;;;;;12.80;99.15;99337.00;5035874;28;20332;-63
2024/01/02 08:36:21;;;;;;;;;;;;;;;12.76;98.97;99333.34;5036220;28;19928;-64
2024/01/02 08:38:48;;;;;;;;;;;;;;;12.73;99.14;99336.03;5036334;28;19921;-65
2024/01/02 08:41:15;;;;;;;;;;;;;;;12.87;99.02;99330.81;5046795;28;19925;-64
2024/01/02 08:43:42;;;;;;;;;;;;;;;12.78;99.34;99316.44;5057024;28;19936;-63
2024/01/02 08:46:09;;;;;;;;;;;;;;;12.77;99.36;99323.91;5051849;28;20529;-62
2024/01/02 08:48:37;;;;;;;;;;;;;;;12.70;99.62;99307.19;5060782;28;20413;-62
2024/01/02 08:51:04;;;;;;;;;;;;;;;12.68;100.00;99331.59;5027559;28;19932;-64
2024/01/02 08:53:32;;;;;;;;;;;;;;;12.62;100.00;99315.69;5051466;28;19928;-61
2024/01/02 08:55:59;;;;;;;;;;;;;;;12.70;100.00;99309.16;5053173;28;19951;-63
2024/01/02 08:58:26;;;;;;;;;;;;;;;12.40;100.00;99322.66;5047970;28;19920;-62
2024/01/02 09:00:53;;;;;;;;;;;;;;;12.42;100.00;99312.88;5047735;28;19921;-63
2024/01/02 09:03:21;;;;;;;;;;;;;;;12.22;100.00;99308.44;5044925;28;19921;-63
2024/01/02 09:05:49;;;;;;;;;;;;;;;12.44;100.00;99294.00;5043607;28;20371;-61
2024/01/02 09:08:17;;;;;;;;;;;;;;;12.38;100.00;99302.91;5047367;28;19929;-61
2024/01/02 09:10:44;;;;;;;;;;;;;;;12.50;100.00;99291.72;5044096;28;19921;-62
2024/01/02 09:13:11;;;;;;;;;;;;;;;12.62;100.00;99297.16;5047227;28;20616;-61
2024/01/02 09:15:39;;;;;;;;;;;;;;;12.56;100.00;99300.53;5050859;28;19924;-62
2024/01/02 09:18:06;;;;;;;;;;;;;;;12.68;100.00;99292.13;5043550;28;19921;-62
2024/01/02 09:20:34;;;;;;;;;;;;;;;12.66;100.00;99286.97;5038607;28;19940;-60
2024/01/02 09:23:02;;;;;;;;;;;;;;;12.72;100.00;99293.00;5046974;28;19920;-61
2024/01/02 09:25:30;;;;;;;;;;;;;;;12.61;100.00;99287.25;5047318;28;19920;-62
2024/01/02 09:28:00;;;;;;;;;;;;;;;12.50;100.00;99271.63;5046989;28;19929;-62
2024/01/02 09:30:29;;;;;;;;;;;;;;;12.48;100.00;99273.94;5048295;28;19924;-63
2024/01/02 09:32:58;;;;;;;;;;;;;;;12.54;100.00;99280.75;5048190;28;19925;-62
2024/01/02 09:35:25;;;;;;;;;;;;;;;12.69;100.00;99294.56;5047201;28;19920;-62
2024/01/02 09:37:55;;;;;;;;;;;;;;;12.90;100.00;99277.63;5046775;28;19920;-63
2024/01/02 09:40:33;;;;;;;;;;;;;;;12.65;100.00;99279.84;5046893;28;19947;-62
2024/01/02 09:43:10;;;;;;;;;;;;;;;12.77;100.00;99271.44;5045935;28;20343;-61
2024/01/02 09:45:45;;;;;;;;;;;;;;;12.74;100.00;99280.44;5048569;28;19951;-62
2024/01/02 09:48:27;;;;;;;;;;;;;;;12.79;100.00;99279.34;5050980;28;19921;-63
2024/01/02 09:50:57;;;;;;;;;;;;;;;13.11;100.00;99270.56;5047338;28;19932;-62
2024/01/02 09:53:54;;;;;;;;;;;;;;;12.99;100.00;99264.38;5052515;28;19920;-63
2024/01/02 09:56:25;;;;;;;;;;;;;;;12.90;100.00;99263.81;5039198;28;19920;-62
2024/01/02 09:59:02;;;;;;;;;;;;;;;12.89;100.00;99268.53;5049618;28;19928;-63
2024/01/02 10:01:29;;;;;;;;;;;;;;;13.01;100.00;99262.03;5049821;28;19921;-62
2024/01/02 10:03:57;;;;;;;;;;;;;;;13.04;100.00;99262.13;5052941;28;19924;-61
2024/01/02 10:06:38;;;;;;;;;;;;;;;12.96;100.00;99271.44;5046240;28;19932;-62
2024/01/02 10:09:17;;;;;;;;;;;;;;;12.83;100.00;99275.47;5046590;28;19921;-62
2024/01/02 10:12:08;;;;;;;;;;;;;;;12.90;100.00;99252.75;5040005;28;19940;-62
2024/01/02 10:14:54;;;;;;;;;;;;;;;12.89;100.00;99264.94;5034271;28;19928;-61
2024/01/02 10:17:27;;;;;;;;;;;;;;;13.10;100.00;99266.22;5048306;28;19927;-63
2024/01/02 10:19:57;;;;;;;;;;;;;;;13.27;100.00;99276.81;5047152;28;19925;-61
2024/01/02 10:22:42;;;;;;;;;;;;;;;13.18;100.00;99262.41;5052028;28;19928;-58
2024/01/02 10:25:13;;;;;;;;;;;;;;;12.94;100.00;99248.88;5051485;28;19943;-60
2024/01/02 10:28:02;;;;;;;;;;;;;;;13.00;100.00;99249.38;5051717;28;20470;-62
2024/01/02 10:30:31;;;;;;;;;;;;;;;13.02;100.00;99255.38;5054274;28;19928;-62
2024/01/02 10:33:02;;;;;;;;;;;;;;;13.12;100.00;99257.56;5051234;28;19924;-63
2024/01/02 10:35:35;;;;;;;;;;;;;;;13.23;100.00;99256.56;5051598;28;19928;-62
2024/01/02 10:38:12;;;;;;;;;;;;;;;13.01;100.00;99250.97;5048580;28;19925;-62
2024/01/02 10:40:41;;;;;;;;;;;;;;;13.04;100.00;99253.06;5048364;28;19924;-62
2024/01/02 10:43:18;;;;;;;;;;;;;;;12.99;100.00;99248.59;5058132;28;19921;-62
2024/01/02 10:45:55;;;;;;;;;;;;;;;13.04;100.00;99242.00;5048601;28;19936;-61
2024/01/02 10:48:22;;;;;;;;;;;;;;;13.00;100.00;99243.84;5047170;28;19924;-63
2024/01/02 10:50:49;;;;;;;;;;;;;;;12.97;100.00;99245.38;5047655;28;19929;-62
2024/01/02 10:53:36;;;;;;;;;;;;;;;13.00;100.00;99221.75;5050892;28;19947;-62
2024/01/02 10:56:05;;;;;;;;;;;;;;;13.21;100.00;99230.47;5050417;28;21746;-63
2024/01/02 10:58:35;;;;;;;;;;;;;;;12.96;100.00;99237.44;5040036;28;19924;-62
2024/01/02 11:01:06;;;;;;;;;;;;;;;13.10;100.00;99215.66;5033979;28;19935;-62
2024/01/02 11:03:41;;;;;;;;;;;;;;;13.21;100.00;99217.47;5037545;28;20437;-60
2024/01/02 11:06:12;;;;;;;;;;;;;;;12.93;100.00;99214.13;5040639;28;19925;-61
2024/01/02 11:08:50;;;;;;;;;;;;;;;12.93;100.00;99210.56;5045786;28;19925;-62
2024/01/02 11:11:17;;;;;;;;;;;;;;;13.10;100.00;99212.88;5051694;28;19932;-62
2024/01/02 11:13:46;;;;;;;;;;;;;;;12.98;100.00;99196.44;5042094;28;19931;-63
2024/01/02 11:16:15;;;;;;;;;;;;;;;12.90;100.00;99205.75;5050229;28;19920;-63
2024/01/02 11:18:50;;;;;;;;;;;;;;;12.71;100.00;99203.78;5050418;28;19921;-62
2024/01/02 11:21:36;;;;;;;;;;;;;;;12.76;100.00;99211.00;5050720;28;19924;-62
2024/01/02 11:24:04;;;;;;;;;;;;;;;12.76;100.00;99200.72;5049056;28;19928;-62
2024/01/02 11:26:31;;;;;;;;;;;;;;;12.78;100.00;99192.09;5041798;28;19921;-62
2024/01/02 11:29:00;;;;;;;;;;;;;;;12.71;100.00;99189.19;5047337;28;19925;-63
2024/01/02 11:31:30;;;;;;;;;;;;;;;13.00;100.00;99185.81;5050933;28;19924;-64
2024/01/02 11:34:06;;;;;;;;;;;;;;;12.94;100.00;99168.72;5047101;28;20307;-61
2024/01/02 11:36:42;;;;;;;;;;;;;;;13.08;100.00;99162.69;5047839;28;19935;-62
2024/01/02 11:39:13;;;;;;;;;;;;;;;13.14;100.00;99150.97;5046860;28;19924;-61
2024/01/02 11:41:50;;;;;;;;;;;;;;;13.00;100.00;99142.41;5050141;28;19936;-62
2024/01/02 11:44:37;;;;;;;;;;;;;;;12.95;100.00;99136.38;5059852;28;19939;-62
2024/01/02 11:47:05;;;;;;;;;;;;;;;13.00;100.00;99147.94;5053487;28;19921;-62
2024/01/02 11:49:33;;;;;;;;;;;;;;;12.93;100.00;99124.88;5046720;28;19947;-62
2024/01/02 11:52:03;;;;;;;;;;;;;;;12.96;100.00;99110.31;5060653;28;19927;-63
2024/01/02 11:55:03;;;;;;;;;;;;;;;12.96;100.00;99097.31;5049725;28;19980;-63
2024/01/02 11:57:38;;;;;;;;;;;;;;;13.09;100.00;99095.97;5044205;28;19920;-63
2024/01/02 12:00:07;;;;;;;;;;;;;;;13.23;100.00;99090.69;5067013;28;19921;-63
2024/01/02 12:02:57;;;;;;;;;;;;;;;13.14;100.00;99086.59;5049262;28;19936;-62
2024/01/02 12:05:25;;;;;;;;;;;;;;;13.21;100.00;99059.88;5063930;28;19932;-60
2024/01/02 12:07:53;;;;;;;;;;;;;;;13.31;100.00;99050.13;5049357;28;19920;-62
2024/01/02 12:10:21;;;;;;;;;;;;;;;13.31;100.00;99048.16;5063314;28;19920;-62
2024/01/02 12:12:53;;;;;;;;;;;;;;;13.29;100.00;99046.94;5071457;28;19927;-66
2024/01/02 12:15:44;;;;;;;;;;;;;;;13.42;100.00;99029.75;5051658;28;19920;-63
2024/01/02 12:18:11;;;;;;;;;;;;;;;13.26;100.00;99025.56;5037282;28;19943;-62
2024/01/02 12:20:56;;;;;;;;;;;;;;;13.45;100.00;99001.38;5041926;28;19925;-62
2024/01/02 12:23:26;;;;;;;;;;;;;;;13.58;100.00;98996.41;5043071;28;19925;-63
2024/01/02 12:25:55;;;;;;;;;;;;;;;13.52;100.00;99004.22;5062549;28;20359;-64
2024/01/02 12:28:24;;;;;;;;;;;;;;;13.70;100.00;99001.69;5048366;28;19929;-62
2024/01/02 12:31:09;;;;;;;;;;;;;;;13.84;99.29;98985.28;5048547;28;20520;-63
2024/01/02 12:33:45;;;;;;;;;;;;;;;13.92;98.17;98967.56;5047998;28;20182;-62
2024/01/02 12:36:17;;;;;;;;;;;;;;;13.87;97.27;98947.72;5043886;28;19939;-62
2024/01/02 12:38:46;;;;;;;;;;;;;;;13.54;98.52;98963.16;5047166;28;20340;-63
2024/01/02 12:41:20;;;;;;;;;;;;;;;13.47;98.59;98957.53;5047018;28;19921;-62
2024/01/02 12:43:49;;;;;;;;;;;;;;;13.37;100.00;98947.09;5043997;28;19924;-63
2024/01/02 12:46:19;;;;;;;;;;;;;;;13.35;100.00;98957.75;5047448;28;19924;-62
2024/01/02 12:49:07;;;;;;;;;;;;;;;13.24;100.00;98942.19;5051403;28;20249;-63
2024/01/02 12:51:38;;;;;;;;;;;;;;;13.31;100.00;98923.72;5049845;28;19931;-62